• Join FlightAware (Why Join?)
  • Login
  • US Flag 
12:39PM EDT


 

Airport Tracker/Info


-or-


 

Live Flight TrackerFlight Track Log ✈ N100JD ✈ 01-May-2012 ✈ KCOD - KBJC

Flight Track Log - Related Links

Times and Time Zones

All times are in EDT time to prevent confusion due to time zone crossing. See the N100JD flight status page for this flight to view local times or setup timezone preferences in your user account.

Time Position Orientation Groundspeed Altitude Reporting Facility
EDT Latitude Longitude Course Direction KTS MPH feet Rate Location/Type
09:56AM 44.4546 -108.9701 141° Southeast  Level FlightAware Approximate
09:57AM 44.3339 -108.8331 156° South 168 193 14,400  Level Salt Lake Center
09:58AM 44.2928 -108.8069 154° Southeast 168 193 15,400 1,020 Climbing Salt Lake Center
09:59AM 44.2497 -108.7778 146° Southeast 177 204 16,500 1,080 Climbing Salt Lake Center
10:00AM 44.2025 -108.7333 145° Southeast 182 209 17,700 1,140 Climbing Salt Lake Center
10:01AM 44.1625 -108.6942 148° Southeast 184 212 18,900 1,020 Climbing Salt Lake Center
10:02AM 44.1133 -108.6508 146° Southeast 185 213 19,800 840 Climbing Salt Lake Center
10:03AM 44.0733 -108.6136 145° Southeast 184 212 20,700 540 Climbing Salt Lake Center
10:04AM 44.0342 -108.5750 147° Southeast 182 209 21,000 120 Climbing Salt Lake Center
10:05AM 43.9753 -108.5228 146° Southeast 214 246 21,000  Level Salt Lake Center
10:06AM 43.9225 -108.4733 147° Southeast 241 277 21,000  Level Salt Lake Center
10:07AM 43.8603 -108.4169 148° Southeast 240 276 21,000  Level Salt Lake Center
10:08AM 43.8042 -108.3681 147° Southeast 245 282 21,000  Level Salt Lake Center
10:09AM 43.7397 -108.3100 147° Southeast 247 284 21,000  Level Salt Lake Center
10:10AM 43.6861 -108.2611 146° Southeast 243 280 21,000  Level Salt Lake Center
10:11AM 43.6336 -108.2125 147° Southeast 240 276 21,000  Level Salt Lake Center
10:12AM 43.5703 -108.1567 147° Southeast 241 277 21,000  Level Salt Lake Center
10:13AM 43.5167 -108.1083 147° Southeast 242 278 21,000  Level Salt Lake Center
10:14AM 43.4525 -108.0500 148° Southeast 246 283 21,000  Level Salt Lake Center
10:15AM 43.3958 -108.0006 146° Southeast 251 289 21,000  Level Salt Lake Center
10:16AM 43.3306 -107.9408 147° Southeast 252 290 21,000  Level Salt Lake Center
10:17AM 43.2761 -107.8931 147° Southeast 246 283 21,000  Level Salt Lake Center
10:18AM 43.2233 -107.8458 147° Southeast 240 276 21,000  Level Salt Lake Center
10:19AM 43.1611 -107.7914 147° Southeast 238 274 21,000  Level Salt Lake Center
10:20AM 43.1081 -107.7447 146° Southeast 238 274 21,000  Level Salt Lake Center
10:21AM 43.0469 -107.6892 148° Southeast 237 273 21,000  Level Salt Lake Center
10:22AM 42.9942 -107.6436 147° Southeast 236 272 21,000  Level Salt Lake Center
10:23AM 42.9356 -107.5919 148° Southeast 232 267 21,000  Level Salt Lake Center
10:25AM 42.8853 -107.5483 148° Southeast 227 261 21,000  Level Salt Lake Center
10:26AM 42.8283 -107.4989 147° Southeast 221 254 21,000  Level Salt Lake Center
10:27AM 42.7806 -107.4572 147° Southeast 216 249 21,000  Level Salt Lake Center
10:28AM 42.7328 -107.4153 148° Southeast 215 247 21,000  Level Salt Lake Center
10:29AM 42.6767 -107.3667 147° Southeast 214 246 21,000  Level Salt Lake Center
10:30AM 42.6283 -107.3247 147° Southeast 215 247 21,000  Level Salt Lake Center
10:31AM 42.5714 -107.2753 148° Southeast 217 250 21,000  Level Salt Lake Center
10:32AM 42.5228 -107.2333 148° Southeast 217 250 21,000  Level Salt Lake Center
10:33AM 42.4669 -107.1858 147° Southeast 214 246 21,000  Level Salt Lake Center
10:34AM 42.4178 -107.1433 148° Southeast 217 250 21,000  Level Salt Lake Center
10:35AM 42.3681 -107.1006 148° Southeast 220 253 21,000  Level Salt Lake Center
10:36AM 42.3092 -107.0500 147° Southeast 223 257 21,000  Level Salt Lake Center
10:37AM 42.2581 -107.0050 148° Southeast 226 260 21,000  Level Salt Lake Center
10:38AM 42.1986 -106.9544 148° Southeast 226 260 21,000  Level Salt Lake Center
10:39AM 42.1461 -106.9100 147° Southeast 230 265 21,000  Level Salt Lake Center
10:40AM 42.0822 -106.8544 149° Southeast 239 275 21,000  Level Salt Lake Center
10:41AM 42.0289 -106.8114 147° Southeast 237 273 21,000  Level Salt Lake Center
10:42AM 41.9781 -106.7675 148° Southeast 231 266 21,000  Level Salt Lake Center
10:43AM 41.9169 -106.7169 148° Southeast 231 266 21,000  Level Salt Lake Center
10:44AM 41.8647 -106.6728 149° Southeast 231 266 21,000  Level Salt Lake Center
10:45AM 41.7931 -106.6156 150° Southeast 215 247 21,000  Level Denver Center
10:46AM 41.7389 -106.5736 147° Southeast 230 265 21,000  Level Denver Center
10:47AM 41.6908 -106.5319 146° Southeast 224 258 21,000  Level Denver Center
10:48AM 41.6472 -106.4931 147° Southeast 210 242 21,000  Level Denver Center
10:49AM 41.5889 -106.4431 148° Southeast 210 242 21,000  Level Denver Center
10:50AM 41.5347 -106.3986 148° Southeast 221 254 21,000  Level Denver Center
10:51AM 41.4783 -106.3514 150° Southeast 232 267 21,000  Level Denver Center
10:52AM 41.4325 -106.3156 149° Southeast 232 267 21,000  Level Denver Center
10:53AM 41.3739 -106.2686 146° Southeast 232 267 21,000  Level Denver Center
10:54AM 41.3217 -106.2219 153° Southeast 227 261 21,000  Level Denver Center
10:55AM 41.2694 -106.1861 145° Southeast 235 270 21,000  Level Denver Center
10:56AM 41.2256 -106.1450 147° Southeast 224 258 21,000  Level Denver Center
10:57AM 41.1672 -106.0956 147° Southeast 217 250 21,000  Level Denver Center
10:58AM 41.1128 -106.0489 150° Southeast 230 265 21,000  Level Denver Center
10:59AM 41.0625 -106.0108 148° Southeast 230 265 21,000  Level Denver Center
11:00AM 41.0019 -105.9617 150° Southeast 230 265 21,000  Level Denver Center
11:01AM 40.9456 -105.9181 149° Southeast 236 272 21,000  Level Denver Center
11:02AM 40.8972 -105.8800 150° Southeast 231 266 21,000  Level Denver Center
11:03AM 40.8514 -105.8447 147° Southeast 220 253 21,000  Level Denver Center
11:04AM 40.8031 -105.8039 147° Southeast 200 230 21,000 -300 Level Denver Center
11:05AM 40.7592 -105.7661 149° Southeast 195 224 20,500 -600 Descending Denver Center
11:06AM 40.7089 -105.7256 151° Southeast 200 230 19,800 -660 Descending Denver Center
11:07AM 40.6544 -105.6850 146° Southeast 212 244 19,200 -720 Descending Denver Center
11:08AM 40.5936 -105.6311 150° Southeast 233 268 18,400 -840 Descending Denver Center
11:09AM 40.5306 -105.5828 148° Southeast 248 285 17,600 -660 Descending Denver Center
11:10AM 40.4656 -105.5289 148° Southeast 259 298 17,100 -420 Descending Denver Center
11:11AM 40.4025 -105.4781 146° Southeast 267 307 16,800 -480 Descending Denver Center
11:12AM 40.3417 -105.4244 137° Southeast 267 307 16,200 -600 Descending Denver Center
11:13AM 40.2889 -105.3600 136° Southeast 267 307 15,700 -660 Descending Denver Center
11:14AM 40.2444 -105.3036 146° Southeast 238 274 14,900 -1,020 Descending Denver Center
11:15AM 40.1961 -105.2608 154° Southeast 218 251 13,700 -1,260 Descending Denver Center
11:16AM 40.1458 -105.2292 151° Southeast 204 235 12,400 -1,200 Descending Denver Center
11:17AM 40.0975 -105.1947 153° Southeast 204 235 11,300 -1,200 Descending Denver Center
11:18AM 40.0428 -105.1578 150° Southeast 214 246 10,100 -1,260 Descending Denver Center
11:19AM 39.9944 -105.1208 149° Southeast 214 246 8,800 -1,200 Descending Denver Center
11:20AM 39.9439 -105.0811 149° Southeast 214 246 7,800 -1,020 Descending Denver Center